createdAt,value
2019-03-27T00:00:46.071Z,27.50
2019-03-27T00:03:18.461Z,28.67
2019-03-27T00:05:50.837Z,27.53
2019-03-27T00:08:23.221Z,24.47
2019-03-27T00:10:55.694Z,28.57
2019-03-27T00:13:28.083Z,25.57
2019-03-27T00:16:00.460Z,27.30
2019-03-27T00:18:32.880Z,29.77
2019-03-27T00:21:05.353Z,33.23
2019-03-27T00:23:37.739Z,25.70
2019-03-27T00:26:10.126Z,25.93
2019-03-27T00:28:42.527Z,28.20
2019-03-27T00:31:14.902Z,30.70
2019-03-27T00:33:47.290Z,31.27
2019-03-27T00:36:20.764Z,26.80
2019-03-27T00:38:53.161Z,27.03
2019-03-27T00:41:25.561Z,26.40
2019-03-27T00:43:57.928Z,27.73
2019-03-27T00:46:30.285Z,27.50
2019-03-27T00:49:03.086Z,28.37
2019-03-27T00:51:35.471Z,27.00
2019-03-27T00:54:07.843Z,25.30
2019-03-27T00:56:40.225Z,31.63
2019-03-27T00:59:12.643Z,27.83
2019-03-27T01:01:45.088Z,29.83
2019-03-27T01:04:17.510Z,27.20
2019-03-27T01:06:51.126Z,26.20
2019-03-27T01:09:23.674Z,23.90
2019-03-27T01:11:56.212Z,29.70
2019-03-27T01:14:28.717Z,26.80
2019-03-27T01:17:01.096Z,26.37
2019-03-27T01:19:34.565Z,27.93
2019-03-27T01:22:06.931Z,27.20
2019-03-27T01:24:39.318Z,29.40
2019-03-27T01:27:11.685Z,26.13
2019-03-27T01:29:45.131Z,25.53
2019-03-27T01:32:17.496Z,27.17
2019-03-27T01:34:49.880Z,25.10
2019-03-27T01:37:22.275Z,27.07
2019-03-27T01:39:54.671Z,33.70
2019-03-27T01:42:27.075Z,27.10
2019-03-27T01:44:59.887Z,27.40
2019-03-27T01:47:32.243Z,27.03
2019-03-27T01:50:05.119Z,25.83
2019-03-27T01:52:37.497Z,26.77
2019-03-27T01:55:10.555Z,27.90
2019-03-27T01:57:42.953Z,26.00
2019-03-27T02:00:15.358Z,26.20
2019-03-27T02:02:47.725Z,24.90
2019-03-27T02:05:20.160Z,29.47
2019-03-27T02:07:52.534Z,26.20
2019-03-27T02:10:24.954Z,25.40
2019-03-27T02:12:57.351Z,25.10
2019-03-27T02:15:29.830Z,28.67
2019-03-27T02:18:02.248Z,25.40
2019-03-27T02:20:34.904Z,32.07
2019-03-27T02:23:07.294Z,27.83
2019-03-27T02:25:39.693Z,29.20
2019-03-27T02:28:12.086Z,27.93
2019-03-27T02:30:44.517Z,24.97
2019-03-27T02:33:16.911Z,27.07
2019-03-27T02:35:49.263Z,28.10
2019-03-27T02:38:21.661Z,30.00
2019-03-27T02:40:54.032Z,30.50
2019-03-27T02:43:26.426Z,27.43
2019-03-27T02:45:58.784Z,27.10
2019-03-27T02:48:31.378Z,26.33
2019-03-27T02:51:03.767Z,30.40
2019-03-27T02:53:36.163Z,25.60
2019-03-27T02:56:08.512Z,26.63
2019-03-27T02:58:40.910Z,25.10
2019-03-27T03:01:13.292Z,28.50
2019-03-27T03:03:45.711Z,28.60
2019-03-27T03:06:18.052Z,30.23
2019-03-27T03:08:50.461Z,26.40
2019-03-27T03:11:22.837Z,31.47
2019-03-27T03:13:55.221Z,30.60
2019-03-27T03:16:41.407Z,33.17
2019-03-27T03:19:01.709Z,26.10
2019-03-27T03:21:34.055Z,30.47
2019-03-27T03:24:06.447Z,26.80
2019-03-27T03:26:40.283Z,28.63
2019-03-27T03:29:12.670Z,30.27
2019-03-27T03:31:45.039Z,30.70
2019-03-27T03:34:17.496Z,28.40
2019-03-27T03:36:49.832Z,27.40
2019-03-27T03:39:22.301Z,28.87
2019-03-27T03:41:54.687Z,29.03
2019-03-27T03:44:27.090Z,29.60
2019-03-27T03:47:00.645Z,31.10
2019-03-27T03:49:33.239Z,32.40
2019-03-27T03:52:06.097Z,32.30
2019-03-27T03:54:38.842Z,28.30
2019-03-27T03:57:13.758Z,30.97
2019-03-27T03:59:47.042Z,26.70
2019-03-27T04:02:20.898Z,27.60
2019-03-27T04:04:54.188Z,29.13
2019-03-27T04:07:26.545Z,28.97
2019-03-27T04:09:58.986Z,30.60
2019-03-27T04:12:31.495Z,28.57
2019-03-27T04:15:03.874Z,28.53
2019-03-27T04:17:36.224Z,28.73
2019-03-27T04:20:09.289Z,27.00
2019-03-27T04:22:41.663Z,29.20
2019-03-27T04:25:14.640Z,30.60
2019-03-27T04:27:46.998Z,33.90
2019-03-27T04:30:19.388Z,27.73
2019-03-27T04:32:51.780Z,32.07
2019-03-27T04:35:24.160Z,28.87
2019-03-27T04:37:56.545Z,35.23
2019-03-27T04:40:28.917Z,31.37
2019-03-27T04:43:01.287Z,32.90
2019-03-27T04:45:33.695Z,30.73
2019-03-27T04:48:06.070Z,33.90
2019-03-27T04:50:38.442Z,31.50
2019-03-27T04:53:11.895Z,36.70
2019-03-27T04:55:44.359Z,30.43
2019-03-27T04:58:16.791Z,28.03
2019-03-27T05:00:50.288Z,30.87
2019-03-27T05:03:22.654Z,38.93
2019-03-27T05:05:55.061Z,38.67
2019-03-27T05:08:27.428Z,28.50
2019-03-27T05:10:59.856Z,35.93
2019-03-27T05:13:32.266Z,35.63
2019-03-27T05:16:04.676Z,35.07
2019-03-27T05:18:37.085Z,27.87
2019-03-27T05:21:09.450Z,28.80
2019-03-27T05:23:41.841Z,30.03
2019-03-27T05:26:14.191Z,29.80
2019-03-27T05:28:46.612Z,29.70
2019-03-27T05:31:18.964Z,28.53
2019-03-27T05:33:51.353Z,27.87
2019-03-27T05:36:23.796Z,27.57
2019-03-27T05:38:56.174Z,30.97
2019-03-27T05:41:28.548Z,26.97
2019-03-27T05:44:00.969Z,27.00
2019-03-27T05:46:33.366Z,30.73
2019-03-27T05:49:06.843Z,27.30
2019-03-27T05:51:39.201Z,28.73
2019-03-27T05:54:11.575Z,30.83
2019-03-27T05:56:43.935Z,25.77
2019-03-27T05:59:16.356Z,28.40
2019-03-27T06:01:48.810Z,25.73
2019-03-27T06:04:21.198Z,27.20
2019-03-27T06:06:53.545Z,24.83
2019-03-27T06:09:25.993Z,25.40
2019-03-27T06:11:58.451Z,25.40
2019-03-27T06:14:30.803Z,24.40
2019-03-27T06:17:03.190Z,24.30
2019-03-27T06:19:37.058Z,25.23
2019-03-27T06:22:09.525Z,24.50
2019-03-27T06:24:41.909Z,24.87
2019-03-27T06:27:14.291Z,27.13
2019-03-27T06:29:46.712Z,25.70
2019-03-27T06:32:19.180Z,26.50
2019-03-27T06:34:51.603Z,23.03
2019-03-27T06:37:24.046Z,23.80
2019-03-27T06:39:56.436Z,24.80
2019-03-27T06:42:28.801Z,25.17
2019-03-27T06:45:01.210Z,25.47
2019-03-27T06:47:33.606Z,26.40
2019-03-27T06:50:07.223Z,29.13
2019-03-27T06:52:39.618Z,25.40
2019-03-27T06:55:12.218Z,26.87
2019-03-27T06:57:44.590Z,31.17
2019-03-27T07:00:17.413Z,30.27
2019-03-27T07:02:49.808Z,26.57
2019-03-27T07:05:22.315Z,34.43
2019-03-27T07:07:54.728Z,31.47
2019-03-27T07:10:27.121Z,31.70
2019-03-27T07:12:59.638Z,29.17
2019-03-27T07:15:35.441Z,29.43
2019-03-27T07:18:06.125Z,29.63
2019-03-27T07:20:40.954Z,31.07
2019-03-27T07:23:13.742Z,29.40
2019-03-27T07:25:46.135Z,29.57
2019-03-27T07:28:18.491Z,32.67
2019-03-27T07:30:50.970Z,34.03
2019-03-27T07:33:24.408Z,31.43
2019-03-27T07:35:56.832Z,31.13
2019-03-27T07:38:29.247Z,30.53
2019-03-27T07:41:01.650Z,32.37
2019-03-27T07:43:34.040Z,31.93
2019-03-27T07:46:06.748Z,31.00
2019-03-27T07:48:39.177Z,30.30
2019-03-27T07:51:11.595Z,35.20
2019-03-27T07:53:44.015Z,32.03
2019-03-27T07:56:16.491Z,33.57
2019-03-27T07:58:48.921Z,29.03
2019-03-27T08:01:21.507Z,31.87
2019-03-27T08:03:53.942Z,32.03
2019-03-27T08:06:26.335Z,32.30
2019-03-27T08:08:58.748Z,37.37
2019-03-27T08:11:31.393Z,31.10
2019-03-27T08:14:03.877Z,29.60
2019-03-27T08:16:36.306Z,32.63
2019-03-27T08:19:08.722Z,28.10
2019-03-27T08:21:41.148Z,27.27
2019-03-27T08:24:13.557Z,29.23
2019-03-27T08:26:46.104Z,30.10
2019-03-27T08:29:18.493Z,28.37
2019-03-27T08:31:50.918Z,25.40
2019-03-27T08:34:23.465Z,26.27
2019-03-27T08:36:55.870Z,29.37
2019-03-27T08:39:28.355Z,26.83
2019-03-27T08:42:00.803Z,25.53
2019-03-27T08:44:33.231Z,26.70
2019-03-27T08:47:07.442Z,27.97
2019-03-27T08:49:40.983Z,25.63
2019-03-27T08:52:13.480Z,23.83
2019-03-27T08:54:46.402Z,15.60
2019-03-27T08:57:18.770Z,15.10
2019-03-27T08:59:51.203Z,14.10
2019-03-27T09:02:23.587Z,14.83
2019-03-27T09:04:56.090Z,14.00
2019-03-27T09:07:28.642Z,14.47
2019-03-27T09:10:01.070Z,13.57
2019-03-27T09:12:33.515Z,17.30
2019-03-27T09:15:06.428Z,11.17
2019-03-27T09:17:38.845Z,10.67
2019-03-27T09:20:11.901Z,10.70
2019-03-27T09:22:44.316Z,11.73
2019-03-27T09:25:16.954Z,13.07
2019-03-27T09:27:49.379Z,12.57
2019-03-27T09:30:22.918Z,11.83
2019-03-27T09:32:56.474Z,12.17
2019-03-27T09:35:28.900Z,13.30
2019-03-27T09:38:01.446Z,10.90
2019-03-27T09:40:35.049Z,11.00
2019-03-27T09:43:07.459Z,16.83
2019-03-27T09:45:39.895Z,13.83
2019-03-27T09:48:12.325Z,12.30
2019-03-27T09:50:44.727Z,14.97
2019-03-27T09:53:17.182Z,11.00
2019-03-27T09:55:49.630Z,12.23
2019-03-27T09:58:22.127Z,11.53
2019-03-27T10:01:01.156Z,13.80
2019-03-27T10:03:33.659Z,11.50
2019-03-27T10:06:06.108Z,10.60
2019-03-27T10:08:38.675Z,9.83
2019-03-27T10:11:11.050Z,12.83
2019-03-27T10:13:43.501Z,8.80
2019-03-27T10:16:16.008Z,10.90
2019-03-27T10:18:48.446Z,8.93
2019-03-27T10:21:20.860Z,8.77
2019-03-27T10:23:53.348Z,11.43
2019-03-27T10:26:25.704Z,8.53
2019-03-27T10:28:58.107Z,9.07
2019-03-27T10:31:30.545Z,9.20
2019-03-27T10:34:02.984Z,10.60
2019-03-27T10:36:35.382Z,10.90
2019-03-27T10:39:09.593Z,9.40
2019-03-27T10:41:41.956Z,10.20
2019-03-27T10:44:17.403Z,8.53
2019-03-27T10:46:48.519Z,9.87
2019-03-27T10:49:20.983Z,9.60
2019-03-27T10:51:53.716Z,10.53
2019-03-27T10:54:26.130Z,10.83
2019-03-27T10:56:58.494Z,10.80
2019-03-27T10:59:30.921Z,7.53
2019-03-27T11:02:03.399Z,9.47
2019-03-27T11:04:35.806Z,9.93
2019-03-27T11:07:08.264Z,8.60
2019-03-27T11:09:40.756Z,10.60
2019-03-27T11:12:13.138Z,9.40
2019-03-27T11:14:45.556Z,9.20
2019-03-27T11:17:17.930Z,9.00
2019-03-27T11:19:50.495Z,10.37
2019-03-27T11:22:22.901Z,12.77
2019-03-27T11:24:55.300Z,10.20
2019-03-27T11:27:27.776Z,10.70
2019-03-27T11:30:00.377Z,11.63
2019-03-27T11:32:32.897Z,10.97
2019-03-27T11:35:06.184Z,8.07
2019-03-27T11:37:38.581Z,9.90
2019-03-27T11:40:11.368Z,8.80
2019-03-27T11:42:43.734Z,8.50
2019-03-27T11:45:16.220Z,7.90
2019-03-27T11:47:48.736Z,8.70
2019-03-27T11:50:21.142Z,10.77
2019-03-27T11:52:53.582Z,8.60
2019-03-27T11:55:25.995Z,8.20
2019-03-27T11:57:58.576Z,10.13
2019-03-27T12:00:30.995Z,10.57
2019-03-27T12:03:03.576Z,6.43
2019-03-27T12:05:36.061Z,7.80
2019-03-27T12:08:08.534Z,10.60
2019-03-27T12:10:40.985Z,9.33
2019-03-27T12:13:13.352Z,7.30
2019-03-27T12:15:46.990Z,10.50
2019-03-27T12:18:19.655Z,9.73
2019-03-27T12:20:58.773Z,9.17
2019-03-27T12:23:26.218Z,13.40
2019-03-27T12:25:58.627Z,6.90
2019-03-27T12:28:31.057Z,6.03
2019-03-27T12:31:03.481Z,9.70
2019-03-27T12:33:35.922Z,7.20
2019-03-27T12:36:08.377Z,7.80
2019-03-27T12:38:40.753Z,8.37
2019-03-27T12:41:13.197Z,7.77
2019-03-27T12:43:45.634Z,9.43
2019-03-27T12:46:18.054Z,5.03
2019-03-27T12:48:51.588Z,6.23
2019-03-27T12:51:23.999Z,8.03
2019-03-27T12:53:57.458Z,7.10
2019-03-27T12:56:29.914Z,7.10
2019-03-27T12:59:02.351Z,8.63
2019-03-27T13:01:34.778Z,7.63
2019-03-27T13:04:07.392Z,10.50
2019-03-27T13:06:39.880Z,6.90
2019-03-27T13:09:12.320Z,7.20
2019-03-27T13:11:45.166Z,10.17
2019-03-27T13:14:17.597Z,7.33
2019-03-27T13:16:52.316Z,6.70
2019-03-27T13:19:24.141Z,7.17
2019-03-27T13:21:56.569Z,8.70
2019-03-27T13:24:28.945Z,6.20
2019-03-27T13:27:01.340Z,7.97
2019-03-27T13:29:33.786Z,6.90
2019-03-27T13:32:06.650Z,6.97
2019-03-27T13:34:39.096Z,6.50
2019-03-27T13:37:11.488Z,10.13
2019-03-27T13:39:43.891Z,6.53
2019-03-27T13:42:16.310Z,5.83
2019-03-27T13:44:48.739Z,6.77
2019-03-27T13:47:21.151Z,6.10
2019-03-27T13:49:53.599Z,6.50
2019-03-27T13:52:26.051Z,7.83
2019-03-27T13:54:58.773Z,7.20
2019-03-27T13:57:31.156Z,7.40
2019-03-27T14:00:16.675Z,7.60
2019-03-27T14:02:49.062Z,5.60
2019-03-27T14:05:21.503Z,10.30
2019-03-27T14:07:54.032Z,5.77
2019-03-27T14:10:26.576Z,6.63
2019-03-27T14:12:59.184Z,6.93
2019-03-27T14:15:31.603Z,9.83
2019-03-27T14:18:04.063Z,6.40
2019-03-27T14:20:36.492Z,7.93
2019-03-27T14:23:08.888Z,6.30
2019-03-27T14:25:41.336Z,5.47
2019-03-27T14:28:13.745Z,5.40
2019-03-27T14:30:57.365Z,8.23
2019-03-27T14:33:29.788Z,5.47
2019-03-27T14:36:02.260Z,4.87
2019-03-27T14:38:34.657Z,9.00
2019-03-27T14:41:07.080Z,5.57
2019-03-27T14:43:39.497Z,6.30
2019-03-27T14:46:11.896Z,8.30
2019-03-27T14:48:44.295Z,5.23
2019-03-27T14:51:16.712Z,22.43
2019-03-27T14:53:49.111Z,12.10
2019-03-27T14:56:21.558Z,6.37
2019-03-27T14:58:53.956Z,6.43
2019-03-27T15:01:27.487Z,6.40
2019-03-27T15:03:59.869Z,4.20
2019-03-27T15:06:32.498Z,5.57
2019-03-27T15:09:06.127Z,5.27
2019-03-27T15:11:38.589Z,5.57
2019-03-27T15:14:11.053Z,11.50
2019-03-27T15:16:43.461Z,7.50
2019-03-27T15:19:15.950Z,9.67
2019-03-27T15:21:48.408Z,5.90
2019-03-27T15:24:20.839Z,4.60
2019-03-27T15:26:54.769Z,5.67
2019-03-27T15:29:28.246Z,4.17
2019-03-27T15:32:00.734Z,6.33
2019-03-27T15:34:33.321Z,4.30
2019-03-27T15:37:05.791Z,6.63
2019-03-27T15:39:38.279Z,4.63
2019-03-27T15:42:10.773Z,7.10
2019-03-27T15:44:44.449Z,5.37
2019-03-27T15:47:18.031Z,5.37
2019-03-27T15:49:50.635Z,5.13
2019-03-27T15:52:35.844Z,5.60
2019-03-27T15:54:57.169Z,7.17
2019-03-27T15:57:29.620Z,7.60
2019-03-27T16:00:02.119Z,3.87
2019-03-27T16:02:34.630Z,6.50
2019-03-27T16:05:09.098Z,4.87
2019-03-27T16:07:41.518Z,9.20
2019-03-27T16:10:14.454Z,5.40
2019-03-27T16:12:46.967Z,7.40
2019-03-27T16:15:19.515Z,5.90
2019-03-27T16:17:51.948Z,4.13
2019-03-27T16:20:24.550Z,5.63
2019-03-27T16:22:56.958Z,7.70
2019-03-27T16:25:29.477Z,6.10
2019-03-27T16:28:03.408Z,6.43
2019-03-27T16:30:37.764Z,6.37
2019-03-27T16:33:10.193Z,5.03
2019-03-27T16:35:42.721Z,6.00
2019-03-27T16:38:15.135Z,5.10
2019-03-27T16:40:50.360Z,6.40
2019-03-27T16:43:22.878Z,8.07
2019-03-27T16:45:55.326Z,6.03
2019-03-27T16:48:27.720Z,9.50
2019-03-27T16:51:00.277Z,8.13
2019-03-27T16:53:32.771Z,5.73
2019-03-27T16:56:05.488Z,4.90
2019-03-27T16:58:39.168Z,4.80
2019-03-27T17:01:11.584Z,5.70
2019-03-27T17:03:44.054Z,6.10
2019-03-27T17:06:16.903Z,5.73
2019-03-27T17:08:49.346Z,6.73
2019-03-27T17:11:21.776Z,4.90
2019-03-27T17:13:54.219Z,6.10
2019-03-27T17:16:26.749Z,4.93
2019-03-27T17:18:59.198Z,5.70
2019-03-27T17:21:31.734Z,6.00
2019-03-27T17:24:04.170Z,6.93
2019-03-27T17:26:36.608Z,7.60
2019-03-27T17:29:09.011Z,4.43
2019-03-27T17:31:41.484Z,5.30
2019-03-27T17:34:14.012Z,6.37
2019-03-27T17:36:46.433Z,5.87
2019-03-27T17:39:18.903Z,6.20
2019-03-27T17:41:51.569Z,5.00
2019-03-27T17:44:23.971Z,8.37
2019-03-27T17:46:56.437Z,6.97
2019-03-27T17:49:28.896Z,5.10
2019-03-27T17:52:02.392Z,8.50
2019-03-27T17:54:34.891Z,8.30
2019-03-27T17:57:07.346Z,10.50
2019-03-27T17:59:39.834Z,8.70
2019-03-27T18:02:12.285Z,6.60
2019-03-27T18:04:44.731Z,11.43
2019-03-27T18:07:18.276Z,7.67
2019-03-27T18:09:50.780Z,7.00
2019-03-27T18:12:23.186Z,8.93
2019-03-27T18:14:55.739Z,8.93
2019-03-27T18:17:28.189Z,7.20
2019-03-27T18:20:00.725Z,8.37
2019-03-27T18:22:33.142Z,7.03
2019-03-27T18:25:05.734Z,9.10
2019-03-27T18:27:38.184Z,7.67
2019-03-27T18:30:11.763Z,7.70
2019-03-27T18:32:45.405Z,7.07
2019-03-27T18:35:17.928Z,6.50
2019-03-27T18:37:50.342Z,6.67
2019-03-27T18:40:22.756Z,6.13
2019-03-27T18:42:55.175Z,5.77
2019-03-27T18:45:27.653Z,5.37
2019-03-27T18:48:00.160Z,6.10
2019-03-27T18:50:32.880Z,6.93
2019-03-27T18:53:05.462Z,6.60
2019-03-27T18:55:38.254Z,6.40
2019-03-27T18:58:10.852Z,4.80
2019-03-27T19:00:43.343Z,6.37
2019-03-27T19:03:15.797Z,5.50
2019-03-27T19:05:48.315Z,5.63
2019-03-27T19:08:20.742Z,6.13
2019-03-27T19:10:53.186Z,5.67
2019-03-27T19:13:25.692Z,7.87
2019-03-27T19:15:58.540Z,5.80
2019-03-27T19:18:30.995Z,10.47
2019-03-27T19:21:03.414Z,9.43
2019-03-27T19:23:35.789Z,8.03
2019-03-27T19:26:08.265Z,5.10
2019-03-27T19:28:40.792Z,6.27
2019-03-27T19:31:13.318Z,6.60
2019-03-27T19:33:45.797Z,6.13
2019-03-27T19:36:18.279Z,6.40
2019-03-27T19:38:50.704Z,8.80
2019-03-27T19:41:23.170Z,8.87
2019-03-27T19:43:55.731Z,33.50
2019-03-27T19:46:28.177Z,9.33
2019-03-27T19:49:00.667Z,9.53
2019-03-27T19:51:33.141Z,8.97
2019-03-27T19:54:07.710Z,11.03
2019-03-27T19:56:40.143Z,8.03
2019-03-27T19:59:14.391Z,8.60
2019-03-27T20:01:46.863Z,10.37
2019-03-27T20:04:19.309Z,12.43
2019-03-27T20:06:51.751Z,10.70
2019-03-27T20:09:25.317Z,8.27
2019-03-27T20:12:08.733Z,8.03
2019-03-27T20:14:42.489Z,11.13
2019-03-27T20:17:15.338Z,11.27
2019-03-27T20:19:48.913Z,14.10
2019-03-27T20:22:21.431Z,11.87
2019-03-27T20:24:54.014Z,11.13
2019-03-27T20:27:26.526Z,14.10
2019-03-27T20:29:59.047Z,12.60
2019-03-27T20:32:31.513Z,9.60
2019-03-27T20:35:04.216Z,11.00
2019-03-27T20:37:37.307Z,8.30
2019-03-27T20:40:10.300Z,9.73
2019-03-27T20:42:42.932Z,12.13
2019-03-27T20:45:15.856Z,10.83
2019-03-27T20:47:48.299Z,15.43
2019-03-27T20:50:21.228Z,11.13
2019-03-27T20:52:53.690Z,13.47
2019-03-27T20:55:30.673Z,15.07
2019-03-27T20:58:00.219Z,14.83
2019-03-27T21:00:32.670Z,13.70
2019-03-27T21:03:05.220Z,12.40
2019-03-27T21:05:37.698Z,16.00
2019-03-27T21:08:10.079Z,11.93
2019-03-27T21:10:42.520Z,10.37
2019-03-27T21:13:14.946Z,10.90
2019-03-27T21:15:47.359Z,12.37
2019-03-27T21:18:19.753Z,12.07
2019-03-27T21:20:52.218Z,10.10
2019-03-27T21:23:24.618Z,14.17
2019-03-27T21:25:58.072Z,12.00
2019-03-27T21:28:30.495Z,11.13
2019-03-27T21:31:03.965Z,12.47
2019-03-27T21:33:37.445Z,10.27
2019-03-27T21:36:09.849Z,11.90
2019-03-27T21:38:42.290Z,10.77
2019-03-27T21:41:14.689Z,12.77
2019-03-27T21:43:47.128Z,12.03
2019-03-27T21:46:19.539Z,10.60
2019-03-27T21:48:51.975Z,12.80
2019-03-27T21:51:24.418Z,13.00
2019-03-27T21:53:56.865Z,12.57
2019-03-27T21:56:29.229Z,10.53
2019-03-27T21:59:02.665Z,15.40
2019-03-27T22:01:35.106Z,10.50
2019-03-27T22:04:07.520Z,12.97
2019-03-27T22:06:40.167Z,9.73
2019-03-27T22:09:12.581Z,9.93
2019-03-27T22:11:45.077Z,15.00
2019-03-27T22:14:17.487Z,11.03
2019-03-27T22:16:49.901Z,10.60
2019-03-27T22:19:22.318Z,17.00
2019-03-27T22:21:54.724Z,10.70
2019-03-27T22:24:27.095Z,11.53
2019-03-27T22:26:59.612Z,11.90
2019-03-27T22:29:32.045Z,11.40
2019-03-27T22:32:04.410Z,9.10
2019-03-27T22:34:37.102Z,9.40
2019-03-27T22:37:09.525Z,9.03
2019-03-27T22:39:41.989Z,11.03
2019-03-27T22:42:14.373Z,9.60
2019-03-27T22:44:46.780Z,10.47
2019-03-27T22:47:19.186Z,10.23
2019-03-27T22:49:51.694Z,10.47
2019-03-27T22:52:24.047Z,11.67
2019-03-27T22:54:56.409Z,11.23
2019-03-27T22:57:28.771Z,13.87
2019-03-27T23:00:01.218Z,11.30
2019-03-27T23:02:35.351Z,11.03
2019-03-27T23:05:08.049Z,9.93
2019-03-27T23:07:40.441Z,8.17
2019-03-27T23:10:13.183Z,12.43
2019-03-27T23:12:45.534Z,10.80
2019-03-27T23:15:17.969Z,13.93
2019-03-27T23:17:50.375Z,12.07
2019-03-27T23:20:22.806Z,10.13
2019-03-27T23:22:55.216Z,9.83
2019-03-27T23:25:27.639Z,12.60
2019-03-27T23:28:00.025Z,15.07
2019-03-27T23:30:32.419Z,10.60
2019-03-27T23:33:04.780Z,13.53
2019-03-27T23:35:37.238Z,7.60
2019-03-27T23:38:09.622Z,9.97
2019-03-27T23:40:42.048Z,11.60
2019-03-27T23:43:14.425Z,11.10
2019-03-27T23:45:46.877Z,10.50
2019-03-27T23:48:19.231Z,9.10
2019-03-27T23:50:51.639Z,10.13
2019-03-27T23:53:24.272Z,11.10
2019-03-27T23:55:56.679Z,11.13
2019-03-27T23:58:30.113Z,9.70
